Time;durP1;ratioP1;P1;durP2;ratioP2;P2;SDS_P1;SDS_P2;PMS_P1;PMS_P2;Temp;Humidity;BMP_temperature;BMP_pressure;BME280_temperature;BME280_humidity;BME280_pressure;Samples;Min_cycle;Max_cycle;Signal;HPM_P1;HPM_P2
2021/04/17 00:01:37;;;;;;;24.95;7.38;;;9.60;58.90;;;;;;6203506;28;20030;-78
2021/04/17 00:04:39;;;;;;;14.95;7.55;;;9.60;58.80;;;;;;6200165;28;20031;-78
2021/04/17 00:07:40;;;;;;;13.73;6.70;;;9.60;59.00;;;;;;6200603;28;20128;-78
2021/04/17 00:10:41;;;;;;;13.40;7.30;;;9.60;59.00;;;;;;6206955;28;20026;-79
2021/04/17 00:13:42;;;;;;;18.45;7.53;;;9.50;58.90;;;;;;6194565;28;20031;-77
2021/04/17 00:16:44;;;;;;;18.20;8.50;;;9.50;58.90;;;;;;6173788;28;20124;-77
2021/04/17 00:19:47;;;;;;;15.65;8.38;;;9.40;58.80;;;;;;6199205;28;20050;-77
2021/04/17 00:22:48;;;;;;;13.65;6.85;;;9.40;58.90;;;;;;6212473;28;20030;-78
2021/04/17 00:25:49;;;;;;;16.33;7.50;;;9.40;59.00;;;;;;6193140;28;20034;-77
2021/04/17 00:28:50;;;;;;;22.30;8.68;;;9.40;59.10;;;;;;6173541;28;20042;-78
2021/04/17 00:31:51;;;;;;;17.27;8.07;;;9.40;59.30;;;;;;6207703;28;20045;-78
2021/04/17 00:34:52;;;;;;;15.25;8.30;;;9.40;59.40;;;;;;6210395;28;20054;-79
2021/04/17 00:37:53;;;;;;;14.45;8.15;;;9.40;59.40;;;;;;6216373;28;20072;-78
2021/04/17 00:40:56;;;;;;;17.25;8.98;;;9.40;59.30;;;;;;6216593;28;20392;-78
2021/04/17 00:43:57;;;;;;;16.48;8.43;;;9.40;59.30;;;;;;6194114;28;20419;-79
2021/04/17 00:46:57;;;;;;;17.13;8.15;;;9.30;59.20;;;;;;6189006;28;20057;-79
2021/04/17 00:49:59;;;;;;;13.95;8.20;;;9.30;59.20;;;;;;6205821;28;20125;-78
2021/04/17 00:53:00;;;;;;;13.65;6.95;;;9.30;59.30;;;;;;6178123;28;20034;-78
2021/04/17 00:56:09;;;;;;;18.40;7.95;;;9.30;59.30;;;;;;6175899;28;20038;-78
2021/04/17 00:59:09;;;;;;;14.85;8.25;;;9.20;59.50;;;;;;6190961;28;20442;-78
2021/04/17 01:02:11;;;;;;;16.45;7.78;;;9.20;59.50;;;;;;6186442;28;20048;-78
2021/04/17 01:05:14;;;;;;;16.15;8.55;;;9.20;60.20;;;;;;6196894;28;20121;-77
2021/04/17 01:08:33;;;;;;;15.18;8.13;;;9.20;60.10;;;;;;6195083;28;20045;-78
2021/04/17 01:20:45;;;;;;;16.67;7.97;;;9.10;59.30;;;;;;6209360;28;20034;-78
2021/04/17 01:23:57;;;;;;;19.40;8.43;;;9.00;59.30;;;;;;6187228;28;20042;-79
2021/04/17 01:26:58;;;;;;;15.25;7.38;;;9.00;59.20;;;;;;6196353;28;20346;-79
2021/04/17 01:30:00;;;;;;;16.33;7.82;;;9.10;59.10;;;;;;6184067;28;20549;-79
2021/04/17 01:33:02;;;;;;;14.00;7.40;;;9.10;59.00;;;;;;6193857;28;20088;-78
2021/04/17 01:36:05;;;;;;;15.02;7.63;;;9.20;59.00;;;;;;6194831;28;20049;-78
2021/04/17 01:39:09;;;;;;;12.75;7.03;;;9.10;58.80;;;;;;6196838;28;20376;-78
2021/04/17 01:42:14;;;;;;;17.83;7.85;;;9.10;58.70;;;;;;6187694;28;20077;-78
2021/04/17 01:45:18;;;;;;;15.63;7.70;;;9.10;58.60;;;;;;6195667;28;20369;-78
2021/04/17 01:48:21;;;;;;;17.48;7.90;;;9.10;58.60;;;;;;6186215;28;20034;-78
2021/04/17 01:51:22;;;;;;;20.70;9.32;;;9.00;58.60;;;;;;6189359;28;20117;-78
2021/04/17 01:54:47;;;;;;;18.98;7.47;;;9.00;58.70;;;;;;6203935;28;20037;-78
2021/04/17 01:57:50;;;;;;;12.88;7.55;;;8.90;58.70;;;;;;6191228;28;20034;-78
2021/04/17 02:00:56;;;;;;;13.60;7.38;;;8.90;58.90;;;;;;6202439;28;20046;-78
2021/04/17 02:03:57;;;;;;;15.40;7.85;;;8.90;59.00;;;;;;6170749;28;20034;-78
2021/04/17 02:06:57;;;;;;;15.23;7.45;;;8.80;59.00;;;;;;6175649;28;20030;-77
2021/04/17 02:09:58;;;;;;;19.77;6.88;;;8.80;59.00;;;;;;6181960;28;20444;-77
2021/04/17 02:12:59;;;;;;;15.95;8.05;;;8.80;59.00;;;;;;6177363;28;20129;-78
2021/04/17 02:16:16;;;;;;;14.48;8.55;;;8.80;59.00;;;;;;6191589;28;20468;-78
2021/04/17 02:19:26;;;;;;;13.68;7.38;;;8.80;59.00;;;;;;6182115;28;20113;-78
2021/04/17 02:22:29;;;;;;;18.20;8.18;;;8.80;59.00;;;;;;6193629;28;20045;-78
2021/04/17 02:25:30;;;;;;;18.60;9.18;;;8.80;59.10;;;;;;6206868;28;20464;-78
2021/04/17 02:28:32;;;;;;;21.20;8.65;;;8.70;59.10;;;;;;6186400;28;20053;-78
2021/04/17 02:31:34;;;;;;;17.85;8.15;;;8.70;59.30;;;;;;6200083;28;20364;-79
2021/04/17 02:34:34;;;;;;;17.45;8.65;;;8.70;59.30;;;;;;6178299;28;20038;-78
2021/04/17 02:37:35;;;;;;;14.52;6.53;;;8.70;59.10;;;;;;6199550;28;20122;-78
2021/04/17 02:40:36;;;;;;;16.50;7.95;;;8.80;59.10;;;;;;6189532;28;20596;-78
2021/04/17 02:43:37;;;;;;;14.52;7.70;;;8.80;59.00;;;;;;6184576;28;20370;-78
2021/04/17 02:46:38;;;;;;;16.23;7.63;;;8.80;58.90;;;;;;6206723;28;20030;-78
2021/04/17 02:54:01;;;;;;;9.35;5.97;;;8.80;58.50;;;;;;6205066;28;20485;-78
2021/04/17 02:57:02;;;;;;;15.02;6.68;;;8.70;58.20;;;;;;6173396;28;20036;-78
2021/04/17 03:00:06;;;;;;;11.20;6.53;;;8.70;58.30;;;;;;6179336;28;20468;-78
2021/04/17 03:03:07;;;;;;;14.13;7.13;;;8.70;58.20;;;;;;6177350;28;20034;-78
2021/04/17 03:06:08;;;;;;;14.63;7.40;;;8.60;58.10;;;;;;6198064;28;20519;-78
2021/04/17 03:09:09;;;;;;;14.63;7.25;;;8.60;58.20;;;;;;6190414;28;20142;-77
2021/04/17 03:12:10;;;;;;;10.35;6.20;;;8.50;58.00;;;;;;6200354;28;20122;-78
2021/04/17 03:15:11;;;;;;;16.10;6.20;;;8.50;57.80;;;;;;6180191;28;20049;-77
2021/04/17 03:18:12;;;;;;;17.50;7.35;;;8.40;57.70;;;;;;6205688;28;20038;-77
2021/04/17 03:21:13;;;;;;;12.60;5.75;;;8.40;57.80;;;;;;6189115;28;20034;-77
2021/04/17 03:24:14;;;;;;;15.63;7.38;;;8.40;57.80;;;;;;6191473;28;20018;-77
2021/04/17 03:27:15;;;;;;;12.18;6.82;;;8.40;57.80;;;;;;6192530;28;20027;-77
2021/04/17 03:30:19;;;;;;;13.55;6.00;;;8.40;57.90;;;;;;6167225;28;20070;-77
2021/04/17 03:33:20;;;;;;;10.20;5.32;;;8.40;57.90;;;;;;6186848;28;20034;-77
2021/04/17 03:36:21;;;;;;;16.85;6.45;;;8.40;57.80;;;;;;6168166;28;20037;-78
2021/04/17 03:39:22;;;;;;;10.25;5.72;;;8.40;57.70;;;;;;6184188;28;20130;-77
2021/04/17 03:42:23;;;;;;;12.43;6.65;;;8.40;57.60;;;;;;6198513;28;20030;-77
2021/04/17 03:45:25;;;;;;;11.98;6.57;;;8.30;57.60;;;;;;6202754;28;20084;-77
2021/04/17 03:48:25;;;;;;;12.85;6.55;;;8.30;57.70;;;;;;6203943;28;20456;-77
2021/04/17 03:51:27;;;;;;;15.40;6.40;;;8.30;57.80;;;;;;6185379;28;20044;-79
2021/04/17 03:54:28;;;;;;;9.98;5.22;;;8.20;57.70;;;;;;6203707;28;20444;-78
2021/04/17 03:57:29;;;;;;;9.15;5.47;;;8.20;57.50;;;;;;6183154;28;20037;-78
2021/04/17 04:00:30;;;;;;;6.80;4.72;;;8.20;57.30;;;;;;6192856;28;20045;-78
2021/04/17 04:03:31;;;;;;;8.48;5.00;;;8.10;57.00;;;;;;6181413;28;20042;-78
2021/04/17 04:06:32;;;;;;;14.90;5.70;;;8.10;56.90;;;;;;6182664;28;20031;-78
2021/04/17 04:09:33;;;;;;;14.82;5.78;;;8.00;56.80;;;;;;6204431;28;20038;-78
2021/04/17 04:12:34;;;;;;;11.68;5.07;;;8.00;56.90;;;;;;6192434;28;20121;-78
2021/04/17 04:15:35;;;;;;;9.88;5.15;;;7.90;56.90;;;;;;6206284;28;20080;-78
2021/04/17 04:18:36;;;;;;;10.18;5.20;;;7.90;57.00;;;;;;6206461;28;20034;-77
2021/04/17 04:21:37;;;;;;;9.80;4.90;;;7.80;57.00;;;;;;6203840;28;20027;-78
2021/04/17 04:24:38;;;;;;;7.60;4.90;;;7.80;57.10;;;;;;6166417;28;20034;-78
2021/04/17 04:27:39;;;;;;;18.13;5.65;;;7.70;57.10;;;;;;6181448;28;20034;-78
2021/04/17 04:30:40;;;;;;;10.50;4.82;;;7.70;57.20;;;;;;6211120;28;20042;-78
2021/04/17 04:33:41;;;;;;;10.27;5.40;;;7.60;57.20;;;;;;6206353;28;20034;-78
2021/04/17 04:36:42;;;;;;;12.23;5.88;;;7.60;57.30;;;;;;6205833;28;20034;-78
2021/04/17 04:39:43;;;;;;;7.57;4.32;;;7.60;57.40;;;;;;6180167;28;20469;-78
2021/04/17 04:42:43;;;;;;;10.90;5.50;;;7.50;57.40;;;;;;6188848;28;20041;-78
2021/04/17 04:45:44;;;;;;;10.60;6.38;;;7.50;57.50;;;;;;6208913;28;20576;-78
2021/04/17 04:48:46;;;;;;;10.15;4.82;;;7.50;57.70;;;;;;6162561;28;20475;-78
2021/04/17 04:51:46;;;;;;;9.05;5.15;;;7.40;57.90;;;;;;6170912;28;20038;-78
2021/04/17 04:54:47;;;;;;;13.13;5.22;;;7.40;58.00;;;;;;6193961;28;20516;-78
2021/04/17 04:57:48;;;;;;;12.10;5.32;;;7.40;58.10;;;;;;6186020;28;20046;-79
2021/04/17 05:00:49;;;;;;;10.57;5.03;;;7.40;58.20;;;;;;6178771;28;20050;-78
2021/04/17 05:03:50;;;;;;;19.50;6.60;;;7.30;58.30;;;;;;6190838;28;20112;-79
2021/04/17 05:06:51;;;;;;;12.07;5.43;;;7.30;58.50;;;;;;6213964;28;20045;-78
2021/04/17 05:09:52;;;;;;;9.32;4.90;;;7.30;58.70;;;;;;6204108;28;20362;-78
2021/04/17 05:12:53;;;;;;;9.88;5.50;;;7.30;58.70;;;;;;6195166;28;20133;-77
2021/04/17 05:15:54;;;;;;;11.70;6.13;;;7.30;58.60;;;;;;6205320;28;20038;-79
2021/04/17 05:18:55;;;;;;;10.75;4.93;;;7.30;58.40;;;;;;6188153;28;20128;-77
2021/04/17 05:21:56;;;;;;;10.27;5.50;;;7.30;58.20;;;;;;6192685;28;20053;-78
2021/04/17 05:24:57;;;;;;;8.60;4.32;;;7.30;58.20;;;;;;6210437;28;20045;-78
2021/04/17 05:27:58;;;;;;;12.98;6.75;;;7.30;58.30;;;;;;6202213;28;20096;-78
2021/04/17 05:30:58;;;;;;;12.85;5.97;;;7.30;58.30;;;;;;6175086;28;20057;-79
2021/04/17 05:33:59;;;;;;;12.43;5.28;;;7.30;58.30;;;;;;6195472;28;20108;-79
2021/04/17 05:37:00;;;;;;;11.38;6.40;;;7.30;58.20;;;;;;6212979;28;20042;-78
2021/04/17 05:40:02;;;;;;;10.02;5.60;;;7.40;58.10;;;;;;6167279;28;20046;-78
2021/04/17 05:43:03;;;;;;;10.80;5.28;;;7.40;58.00;;;;;;6211775;28;20039;-78
2021/04/17 05:46:04;;;;;;;19.08;6.28;;;7.50;57.80;;;;;;6198991;28;20042;-78
2021/04/17 05:49:05;;;;;;;15.07;4.95;;;7.50;57.60;;;;;;6205323;28;20353;-78
2021/04/17 05:52:06;;;;;;;11.23;5.10;;;7.60;57.40;;;;;;6178530;28;20456;-78
2021/04/17 05:55:08;;;;;;;10.90;4.43;;;7.60;57.00;;;;;;6189313;28;20035;-78
2021/04/17 05:58:08;;;;;;;12.13;5.72;;;7.60;56.80;;;;;;6202340;28;20515;-78
2021/04/17 06:01:09;;;;;;;9.68;5.53;;;7.60;56.70;;;;;;6193119;28;20038;-78
2021/04/17 06:04:10;;;;;;;12.73;5.13;;;7.60;56.70;;;;;;6216230;28;20036;-78
2021/04/17 06:07:11;;;;;;;9.25;5.25;;;7.60;56.60;;;;;;6184959;28;20049;-78
2021/04/17 06:10:14;;;;;;;7.88;4.43;;;7.60;56.50;;;;;;6175292;28;20045;-78
2021/04/17 06:13:15;;;;;;;9.82;5.45;;;7.60;56.50;;;;;;6192048;28;20035;-78
2021/04/17 06:16:16;;;;;;;9.13;4.53;;;7.70;56.30;;;;;;6207589;28;20357;-79
2021/04/17 06:19:17;;;;;;;14.25;4.30;;;7.70;56.20;;;;;;6186131;28;20042;-77
2021/04/17 06:22:18;;;;;;;8.77;4.57;;;7.70;56.20;;;;;;6188768;28;20038;-78
2021/04/17 06:25:19;;;;;;;14.60;6.50;;;7.80;56.00;;;;;;6178772;28;20040;-78
2021/04/17 06:28:20;;;;;;;15.65;5.22;;;7.80;55.90;;;;;;6179269;28;20050;-78
2021/04/17 06:31:21;;;;;;;8.15;4.28;;;7.90;55.90;;;;;;6183289;28;20026;-78
2021/04/17 06:34:22;;;;;;;8.43;4.63;;;7.90;55.70;;;;;;6177022;28;20567;-78
2021/04/17 06:37:23;;;;;;;8.20;5.32;;;8.00;55.40;;;;;;6167566;28;20038;-78
2021/04/17 06:40:27;;;;;;;9.70;5.15;;;8.00;55.30;;;;;;6202014;28;20049;-78
2021/04/17 06:43:30;;;;;;;12.43;5.28;;;8.10;55.10;;;;;;6190591;28;20035;-79
2021/04/17 06:46:33;;;;;;;13.80;5.72;;;8.10;55.00;;;;;;6175957;28;20030;-79
2021/04/17 06:49:35;;;;;;;13.27;5.38;;;8.20;55.00;;;;;;6199407;28;20069;-79
2021/04/17 06:52:41;;;;;;;9.10;5.45;;;8.30;54.90;;;;;;6172902;28;20026;-78
2021/04/17 06:55:47;;;;;;;10.02;4.95;;;8.40;54.80;;;;;;6170040;28;20030;-78
2021/04/17 06:58:48;;;;;;;8.75;4.63;;;8.50;54.60;;;;;;6170985;28;20053;-78
2021/04/17 07:01:50;;;;;;;16.10;6.22;;;8.60;54.20;;;;;;6188223;28;20176;-78
2021/04/17 07:04:52;;;;;;;11.68;5.30;;;8.70;53.80;;;;;;6180742;28;20034;-79
2021/04/17 07:07:53;;;;;;;9.60;5.88;;;8.80;53.60;;;;;;6193651;28;20465;-78
2021/04/17 07:10:54;;;;;;;7.03;4.47;;;8.80;53.40;;;;;;6203486;28;20057;-79
2021/04/17 07:14:16;;;;;;;13.68;6.35;;;8.80;53.10;;;;;;6195866;28;20045;-78
2021/04/17 07:17:18;;;;;;;12.68;5.03;;;8.80;52.80;;;;;;6194405;28;20034;-79
2021/04/17 07:20:19;;;;;;;9.90;5.20;;;8.80;52.70;;;;;;6198344;28;20057;-79
2021/04/17 07:23:32;;;;;;;8.70;4.80;;;8.80;52.60;;;;;;6188539;28;20069;-78
2021/04/17 07:26:33;;;;;;;12.40;5.90;;;8.90;52.50;;;;;;6192825;28;20031;-78
2021/04/17 07:29:43;;;;;;;11.63;5.95;;;9.00;52.40;;;;;;6158254;28;20893;-79
2021/04/17 07:32:45;;;;;;;9.85;5.40;;;9.00;52.10;;;;;;6144686;28;20039;-79
2021/04/17 07:35:53;;;;;;;11.43;5.97;;;9.10;52.00;;;;;;6126594;28;20070;-79
2021/04/17 07:38:54;;;;;;;8.88;5.65;;;9.20;51.90;;;;;;6160101;28;20049;-78
2021/04/17 07:42:02;;;;;;;10.43;5.28;;;9.20;51.50;;;;;;6144042;28;20034;-79
2021/04/17 07:45:16;;;;;;;;;;;9.30;51.20;;;;;;6166417;28;20053;-77
2021/04/17 07:48:25;;;;;;;10.00;5.25;;;9.40;51.00;;;;;;6144748;28;19914;-77
2021/04/17 07:51:26;;;;;;;11.32;5.25;;;9.40;50.80;;;;;;6162507;28;20038;-78
2021/04/17 07:54:29;;;;;;;11.90;6.03;;;9.50;50.90;;;;;;6161124;28;20049;-78
2021/04/17 07:57:36;;;;;;;11.70;5.68;;;9.50;50.80;;;;;;6172107;28;20035;-78
2021/04/17 08:00:38;;;;;;;10.10;5.45;;;9.60;50.60;;;;;;6177846;28;20039;-79
2021/04/17 08:03:40;;;;;;;17.17;5.90;;;9.80;50.30;;;;;;6160117;28;20038;-78
2021/04/17 08:06:41;;;;;;;11.45;5.57;;;9.80;49.80;;;;;;6166097;28;20121;-79
2021/04/17 08:09:43;;;;;;;19.17;5.32;;;9.90;49.70;;;;;;6147765;28;20031;-79
2021/04/17 08:12:45;;;;;;;8.85;5.47;;;9.90;49.60;;;;;;6168391;28;20103;-78
2021/04/17 08:15:46;;;;;;;10.43;5.28;;;10.00;49.30;;;;;;6160902;28;20039;-79
2021/04/17 08:18:49;;;;;;;8.55;5.28;;;10.00;49.30;;;;;;6170410;28;20037;-77
2021/04/17 08:21:51;;;;;;;10.30;5.43;;;10.10;49.30;;;;;;6155794;28;20460;-77
2021/04/17 08:24:53;;;;;;;13.10;6.80;;;10.20;49.00;;;;;;6159735;28;20042;-78
2021/04/17 08:27:54;;;;;;;12.65;5.80;;;10.30;48.90;;;;;;6183177;28;20454;-78
2021/04/17 08:31:19;;;;;;;8.52;5.43;;;10.50;48.90;;;;;;6178972;28;20034;-78
2021/04/17 08:34:21;;;;;;;11.13;5.43;;;10.60;48.80;;;;;;6193143;28;20041;-77
2021/04/17 08:37:23;;;;;;;9.10;5.68;;;10.90;48.40;;;;;;6186221;28;20062;-79
2021/04/17 08:40:35;;;;;;;11.63;6.18;;;11.10;48.00;;;;;;6173782;28;20042;-79
2021/04/17 08:43:37;;;;;;;11.85;6.80;;;11.10;47.90;;;;;;6201037;28;20050;-78
2021/04/17 08:46:41;;;;;;;12.35;6.70;;;11.20;47.70;;;;;;6202926;28;20042;-77
2021/04/17 08:49:42;;;;;;;16.95;6.35;;;11.20;47.70;;;;;;6187183;28;20042;-78
2021/04/17 08:52:43;;;;;;;12.55;5.78;;;11.20;47.50;;;;;;6176589;28;20038;-79
2021/04/17 08:55:47;;;;;;;12.68;6.28;;;11.30;47.40;;;;;;6177924;28;20038;-79
2021/04/17 08:59:07;;;;;;;13.30;6.30;;;11.30;47.30;;;;;;6197900;28;20049;-78
2021/04/17 09:02:28;;;;;;;11.73;6.63;;;11.40;47.10;;;;;;6194691;28;20113;-79
2021/04/17 09:05:46;;;;;;;10.57;5.93;;;11.50;46.90;;;;;;6176414;28;20034;-77
2021/04/17 09:09:21;;;;;;;12.57;6.60;;;11.60;46.90;;;;;;6193441;28;20096;-79
2021/04/17 09:12:24;;;;;;;12.85;6.45;;;11.70;46.70;;;;;;6197185;28;20053;-78
2021/04/17 09:15:48;;;;;;;10.93;5.88;;;11.70;46.50;;;;;;6181990;28;20030;-79
2021/04/17 09:18:49;;;;;;;12.70;6.30;;;11.80;46.70;;;;;;6180286;28;20125;-78
2021/04/17 09:21:50;;;;;;;12.00;6.40;;;11.90;46.50;;;;;;6190930;28;20034;-79
2021/04/17 09:25:14;;;;;;;10.63;6.32;;;12.00;46.40;;;;;;6193999;28;20065;-78
2021/04/17 09:28:15;;;;;;;11.05;6.35;;;12.10;46.20;;;;;;6202873;28;20037;-78
2021/04/17 09:31:17;;;;;;;15.13;6.80;;;12.10;46.10;;;;;;6187393;28;20042;-78
2021/04/17 09:34:20;;;;;;;17.23;7.07;;;12.10;45.90;;;;;;6170185;28;20045;-79
2021/04/17 09:37:25;;;;;;;11.77;6.38;;;12.20;45.90;;;;;;6191663;28;20403;-77
2021/04/17 09:40:51;;;;;;;12.80;7.85;;;12.20;45.80;;;;;;6158839;28;20031;-79
2021/04/17 09:43:56;;;;;;;15.25;7.55;;;12.40;45.60;;;;;;6199525;28;20054;-79
2021/04/17 09:47:08;;;;;;;14.82;7.38;;;12.60;45.00;;;;;;6205706;28;20114;-79
2021/04/17 09:50:24;;;;;;;13.82;7.03;;;12.70;44.80;;;;;;6183655;28;20034;-79
2021/04/17 09:53:32;;;;;;;10.70;6.20;;;12.80;44.60;;;;;;6187123;28;20034;-79
2021/04/17 09:56:38;;;;;;;11.52;6.50;;;13.10;44.30;;;;;;6181533;28;20110;-79
2021/04/17 09:59:57;;;;;;;11.98;7.03;;;13.30;44.00;;;;;;6207471;28;20483;-79
2021/04/17 10:03:00;;;;;;;12.88;6.68;;;13.40;43.50;;;;;;6205391;28;20460;-78
2021/04/17 10:06:02;;;;;;;13.20;7.53;;;13.70;43.20;;;;;;6183128;28;20461;-79
2021/04/17 10:09:11;;;;;;;14.23;6.60;;;14.00;42.90;;;;;;6193319;28;20037;-79
2021/04/17 10:12:16;;;;;;;13.35;7.75;;;14.40;42.60;;;;;;6176904;28;20039;-78
2021/04/17 10:15:23;;;;;;;12.40;7.22;;;14.70;42.00;;;;;;6201129;28;20356;-78
2021/04/17 10:18:24;;;;;;;13.00;7.15;;;14.90;41.40;;;;;;6206407;28;20082;-78
2021/04/17 10:21:28;;;;;;;9.55;5.95;;;15.00;40.60;;;;;;6199791;28;20038;-78
2021/04/17 10:24:31;;;;;;;9.65;6.32;;;14.90;40.20;;;;;;6197278;28;20048;-77
2021/04/17 10:27:35;;;;;;;14.38;7.43;;;14.90;40.20;;;;;;6193966;28;20368;-79
2021/04/17 10:30:36;;;;;;;14.77;7.13;;;14.80;40.40;;;;;;6191057;28;20421;-78
2021/04/17 10:33:44;;;;;;;17.05;7.25;;;14.70;40.20;;;;;;6203295;28;20033;-79
2021/04/17 10:37:03;;;;;;;11.65;6.82;;;14.60;40.20;;;;;;6183462;28;20080;-79
2021/04/17 10:40:10;;;;;;;12.73;7.68;;;14.60;39.90;;;;;;6194194;28;20050;-78
2021/04/17 10:43:16;;;;;;;13.60;7.03;;;14.70;39.90;;;;;;6200593;28;20034;-78
2021/04/17 10:46:17;;;;;;;11.13;6.63;;;14.70;39.80;;;;;;6195345;28;20084;-78
2021/04/17 10:49:37;;;;;;;11.57;7.03;;;14.70;39.60;;;;;;6198984;28;20474;-78
2021/04/17 10:52:38;;;;;;;11.05;6.53;;;14.60;39.90;;;;;;6202910;28;20030;-79
2021/04/17 10:55:50;;;;;;;18.10;7.25;;;14.60;40.00;;;;;;6197629;28;20031;-78
2021/04/17 10:58:59;;;;;;;12.90;6.95;;;14.60;39.90;;;;;;6183632;28;20062;-78
2021/04/17 11:02:05;;;;;;;12.13;7.20;;;14.70;39.70;;;;;;6184850;28;20048;-77
2021/04/17 11:05:12;;;;;;;12.45;7.45;;;14.90;39.50;;;;;;6193223;28;20049;-78
2021/04/17 11:08:21;;;;;;;14.40;8.13;;;15.00;39.00;;;;;;6175174;28;20105;-78
2021/04/17 11:11:22;;;;;;;13.18;7.07;;;15.10;38.90;;;;;;6210963;28;20084;-78
2021/04/17 11:14:26;;;;;;;11.85;6.72;;;15.10;38.90;;;;;;6204833;28;20041;-78
2021/04/17 11:17:28;;;;;;;15.90;7.07;;;15.30;38.80;;;;;;6200121;28;20034;-78
2021/04/17 11:20:29;;;;;;;19.05;7.38;;;15.50;38.60;;;;;;6184812;28;20104;-78
2021/04/17 11:23:47;;;;;;;13.90;7.85;;;15.70;38.20;;;;;;6201209;28;20157;-77
2021/04/17 11:26:48;;;;;;;10.80;6.82;;;15.80;37.40;;;;;;6202052;28;20099;-78
2021/04/17 11:29:49;;;;;;;11.98;6.55;;;15.90;37.20;;;;;;6204069;28;20152;-78
2021/04/17 11:32:51;;;;;;;13.07;7.30;;;15.90;37.10;;;;;;6202952;28;20042;-78
2021/04/17 11:35:52;;;;;;;15.35;7.30;;;15.90;37.00;;;;;;6218181;28;20333;-78
2021/04/17 11:38:54;;;;;;;14.70;7.07;;;15.80;36.90;;;;;;6194646;28;20038;-79
2021/04/17 11:41:56;;;;;;;12.23;7.22;;;15.90;36.90;;;;;;6207387;28;20065;-77
2021/04/17 11:44:59;;;;;;;12.65;7.20;;;15.90;37.00;;;;;;6222357;28;20096;-78
2021/04/17 11:47:59;;;;;;;12.82;7.45;;;16.00;37.00;;;;;;6211649;28;20085;-78
2021/04/17 11:51:00;;;;;;;14.10;7.30;;;16.00;36.60;;;;;;6206939;28;20459;-78
2021/04/17 11:54:01;;;;;;;14.50;8.20;;;16.00;36.40;;;;;;6207784;28;20080;-80
2021/04/17 11:57:04;;;;;;;15.13;7.55;;;16.00;36.50;;;;;;6207481;28;20456;-78
2021/04/17 12:00:06;;;;;;;10.20;7.05;;;15.90;36.60;;;;;;6175692;28;20588;-78
2021/04/17 12:03:08;;;;;;;10.57;6.47;;;15.80;36.80;;;;;;6192858;28;20116;-79
2021/04/17 12:06:10;;;;;;;13.77;6.97;;;15.80;36.80;;;;;;6235671;28;20034;-79
2021/04/17 12:09:11;;;;;;;13.90;7.28;;;15.80;36.70;;;;;;6216884;28;20069;-79
2021/04/17 12:12:12;;;;;;;12.77;7.97;;;15.90;36.70;;;;;;6185670;28;20041;-79
2021/04/17 12:15:14;;;;;;;12.48;7.25;;;15.90;36.50;;;;;;6216929;28;20057;-79
2021/04/17 12:18:15;;;;;;;12.63;6.97;;;15.90;36.60;;;;;;6210201;28;20411;-79
2021/04/17 12:21:16;;;;;;;12.85;7.90;;;15.90;36.60;;;;;;6206714;28;20129;-79
2021/04/17 12:24:17;;;;;;;9.30;6.10;;;15.80;36.40;;;;;;6220650;28;20490;-78
2021/04/17 12:27:18;;;;;;;12.25;6.82;;;15.80;36.40;;;;;;6192482;28;20033;-79
2021/04/17 12:30:20;;;;;;;12.98;7.78;;;15.90;36.60;;;;;;6215323;28;20052;-79
2021/04/17 12:33:23;;;;;;;15.25;7.43;;;15.90;36.60;;;;;;6228603;28;20038;-78
2021/04/17 12:36:24;;;;;;;12.77;7.07;;;16.20;36.60;;;;;;6204019;28;20041;-78
2021/04/17 12:39:25;;;;;;;13.70;7.47;;;16.20;36.40;;;;;;6191399;28;20069;-79
2021/04/17 12:42:26;;;;;;;12.15;7.03;;;16.30;36.10;;;;;;6189419;28;20042;-79
2021/04/17 12:45:28;;;;;;;13.00;7.15;;;16.40;35.90;;;;;;6214483;28;20045;-80
2021/04/17 12:48:29;;;;;;;15.88;7.70;;;16.40;35.80;;;;;;6208306;28;20403;-79
2021/04/17 12:51:31;;;;;;;13.98;7.10;;;16.40;35.90;;;;;;6179611;28;20085;-78
2021/04/17 12:54:32;;;;;;;11.30;6.75;;;16.40;35.90;;;;;;6198113;28;20034;-79
2021/04/17 12:57:33;;;;;;;10.93;6.57;;;16.50;35.80;;;;;;6217782;28;20369;-79
2021/04/17 13:00:34;;;;;;;10.80;6.35;;;16.70;35.50;;;;;;6189085;28;20034;-79
2021/04/17 13:03:35;;;;;;;12.25;7.43;;;16.90;35.10;;;;;;6211531;28;20049;-79
2021/04/17 13:06:37;;;;;;;11.52;6.80;;;17.00;34.90;;;;;;6195413;28;20044;-79
2021/04/17 13:09:38;;;;;;;12.38;6.65;;;17.10;34.40;;;;;;6197582;28;20071;-79
2021/04/17 13:12:39;;;;;;;11.18;6.68;;;17.10;34.20;;;;;;6197863;28;20100;-79
2021/04/17 13:15:41;;;;;;;11.40;6.80;;;17.10;34.10;;;;;;6201655;28;20045;-79
2021/04/17 13:18:44;;;;;;;11.50;7.22;;;17.00;34.80;;;;;;6196276;28;20472;-79
2021/04/17 13:21:45;;;;;;;16.55;6.95;;;17.50;34.10;;;;;;6190968;28;20337;-78
2021/04/17 13:24:46;;;;;;;12.38;7.00;;;18.30;33.00;;;;;;6218019;28;20029;-79
2021/04/17 13:27:47;;;;;;;13.02;6.63;;;19.10;31.80;;;;;;6211996;28;20029;-79
2021/04/17 13:30:48;;;;;;;14.57;6.78;;;20.00;30.60;;;;;;6213708;28;20034;-78
2021/04/17 13:33:49;;;;;;;10.85;6.07;;;20.50;29.50;;;;;;6208863;28;20034;-78
2021/04/17 13:36:50;;;;;;;15.68;6.35;;;20.50;29.00;;;;;;6195861;28;20129;-78
2021/04/17 13:39:51;;;;;;;11.55;6.80;;;20.30;29.20;;;;;;6208170;28;20508;-79
2021/04/17 13:42:52;;;;;;;10.43;6.40;;;20.40;29.30;;;;;;6221176;28;20044;-79
2021/04/17 13:45:53;;;;;;;11.55;6.78;;;20.40;28.90;;;;;;6208158;28;20072;-79
2021/04/17 13:48:54;;;;;;;8.98;6.20;;;20.70;29.00;;;;;;6198314;28;20049;-80
2021/04/17 13:51:55;;;;;;;9.02;5.63;;;21.20;28.20;;;;;;6196842;28;20034;-79
2021/04/17 13:54:56;;;;;;;10.23;6.55;;;21.40;27.70;;;;;;6206641;28;20048;-79
2021/04/17 13:57:59;;;;;;;13.35;6.50;;;22.30;27.10;;;;;;6214789;28;20053;-80
2021/04/17 14:01:00;;;;;;;11.15;6.15;;;23.10;25.80;;;;;;6224994;28;20042;-79
2021/04/17 14:04:01;;;;;;;8.68;5.65;;;23.10;25.60;;;;;;6196545;28;20460;-78
2021/04/17 14:07:03;;;;;;;10.35;5.75;;;23.30;25.80;;;;;;6222467;28;20042;-79
2021/04/17 14:10:06;;;;;;;8.60;6.07;;;23.30;25.30;;;;;;6206437;28;20128;-78
2021/04/17 14:13:07;;;;;;;10.07;5.47;;;23.00;25.40;;;;;;6209717;28;20456;-79
2021/04/17 14:16:08;;;;;;;9.93;5.93;;;22.60;25.80;;;;;;6214846;28;20044;-78
2021/04/17 14:19:09;;;;;;;10.45;5.95;;;22.10;26.30;;;;;;6209836;28;20037;-78
2021/04/17 14:22:09;;;;;;;9.23;5.43;;;21.60;26.50;;;;;;6202985;28;20034;-79
2021/04/17 14:25:12;;;;;;;9.57;5.57;;;21.20;26.80;;;;;;6215602;28;20173;-78
2021/04/17 14:28:13;;;;;;;7.40;5.25;;;20.90;27.20;;;;;;6229513;28;20038;-78
2021/04/17 14:31:15;;;;;;;11.25;6.05;;;20.70;27.50;;;;;;6225965;28;20038;-78
2021/04/17 14:34:17;;;;;;;9.18;6.07;;;20.60;27.70;;;;;;6182064;28;20538;-78
2021/04/17 14:37:17;;;;;;;8.65;5.50;;;20.50;27.70;;;;;;6210443;28;20117;-81
2021/04/17 14:40:19;;;;;;;10.85;6.00;;;20.40;27.80;;;;;;6212155;28;20086;-79
2021/04/17 14:43:21;;;;;;;8.95;5.35;;;20.40;27.90;;;;;;6198277;28;20113;-79
2021/04/17 14:46:23;;;;;;;10.38;6.40;;;20.40;27.90;;;;;;6196430;28;20045;-79
2021/04/17 14:49:23;;;;;;;9.38;5.82;;;20.30;27.80;;;;;;6206569;28;20398;-79
2021/04/17 14:52:26;;;;;;;8.98;5.97;;;20.20;27.90;;;;;;6190649;28;20049;-79
2021/04/17 14:55:28;;;;;;;8.82;5.53;;;20.10;28.00;;;;;;6226725;28;20040;-78
2021/04/17 14:58:29;;;;;;;9.07;5.63;;;20.00;28.20;;;;;;6227084;28;20479;-78
2021/04/17 15:01:36;;;;;;;8.85;5.50;;;19.90;28.40;;;;;;6199044;28;20037;-79
2021/04/17 15:04:37;;;;;;;8.80;5.47;;;19.80;28.40;;;;;;6224913;28;20029;-79
2021/04/17 15:07:38;;;;;;;9.00;5.18;;;19.80;28.50;;;;;;6195390;28;20041;-78
2021/04/17 15:10:39;;;;;;;9.13;5.35;;;19.80;29.10;;;;;;6194543;28;20033;-79
2021/04/17 15:13:40;;;;;;;10.52;5.00;;;19.80;28.80;;;;;;6213590;28;20504;-78
2021/04/17 15:16:42;;;;;;;12.00;5.18;;;19.70;28.70;;;;;;6191464;28;20046;-79
2021/04/17 15:19:44;;;;;;;8.77;5.05;;;19.70;28.70;;;;;;6229759;28;20050;-78
2021/04/17 15:22:45;;;;;;;8.07;5.35;;;19.70;28.80;;;;;;6194919;28;20423;-78
2021/04/17 15:25:50;;;;;;;12.40;5.53;;;19.80;28.80;;;;;;6186966;28;20098;-78
2021/04/17 15:28:52;;;;;;;13.95;5.25;;;19.70;28.80;;;;;;6219375;28;20065;-78
2021/04/17 15:31:53;;;;;;;10.57;5.60;;;19.50;29.00;;;;;;6213307;28;20109;-79
2021/04/17 15:34:54;;;;;;;15.02;5.68;;;19.20;29.30;;;;;;6200142;28;20053;-78
2021/04/17 15:37:55;;;;;;;10.98;5.18;;;19.00;29.60;;;;;;6197606;28;20069;-78
2021/04/17 15:41:08;;;;;;;14.05;5.57;;;18.80;29.70;;;;;;6221865;28;20049;-78
2021/04/17 15:44:09;;;;;;;10.52;5.32;;;18.70;30.00;;;;;;6213437;28;20358;-78
2021/04/17 15:47:11;;;;;;;12.77;5.50;;;18.60;30.00;;;;;;6208443;28;20104;-78
2021/04/17 15:50:12;;;;;;;9.02;5.60;;;18.50;30.10;;;;;;6206008;28;20429;-78
2021/04/17 15:53:13;;;;;;;8.80;5.30;;;18.30;30.30;;;;;;6229133;28;20050;-78
2021/04/17 15:56:14;;;;;;;8.32;5.30;;;18.20;30.70;;;;;;6197356;28;20040;-79
2021/04/17 16:16:03;;;;;;;9.20;5.38;;;18.40;30.70;;;;;;6123982;29;20076;-78
2021/04/17 16:19:03;;;;;;;10.40;5.93;;;18.50;30.60;;;;;;6103764;29;20460;-79